sensor_id;sensor_type;location;lat;lon;timestamp;P1;durP1;ratioP1;P2;durP2;ratioP2
57667;SDS011;43499;52.366;12.912;2023-04-24T00:00:10;6.53;;;5.65;;
57667;SDS011;43499;52.366;12.912;2023-04-24T00:01:13;7.60;;;5.50;;
57667;SDS011;43499;52.366;12.912;2023-04-24T00:02:15;6.68;;;5.18;;
57667;SDS011;43499;52.366;12.912;2023-04-24T00:03:16;6.15;;;4.78;;
57667;SDS011;43499;52.366;12.912;2023-04-24T00:04:17;7.35;;;5.57;;
57667;SDS011;43499;52.366;12.912;2023-04-24T00:05:18;5.80;;;4.68;;
57667;SDS011;43499;52.366;12.912;2023-04-24T00:06:19;5.75;;;5.00;;
57667;SDS011;43499;52.366;12.912;2023-04-24T00:07:21;9.82;;;5.40;;
57667;SDS011;43499;52.366;12.912;2023-04-24T00:08:22;7.25;;;5.10;;
57667;SDS011;43499;52.366;12.912;2023-04-24T00:09:24;7.22;;;5.05;;
57667;SDS011;43499;52.366;12.912;2023-04-24T00:10:25;10.10;;;5.90;;
57667;SDS011;43499;52.366;12.912;2023-04-24T00:11:26;6.65;;;4.75;;
57667;SDS011;43499;52.366;12.912;2023-04-24T00:12:27;6.22;;;4.57;;
57667;SDS011;43499;52.366;12.912;2023-04-24T00:13:28;7.60;;;5.57;;
57667;SDS011;43499;52.366;12.912;2023-04-24T00:14:33;7.35;;;4.57;;
57667;SDS011;43499;52.366;12.912;2023-04-24T00:15:35;5.88;;;4.60;;
57667;SDS011;43499;52.366;12.912;2023-04-24T00:16:36;5.95;;;4.78;;
57667;SDS011;43499;52.366;12.912;2023-04-24T00:17:37;6.38;;;5.53;;
57667;SDS011;43499;52.366;12.912;2023-04-24T00:18:39;11.10;;;5.22;;
57667;SDS011;43499;52.366;12.912;2023-04-24T00:19:40;8.73;;;4.88;;
57667;SDS011;43499;52.366;12.912;2023-04-24T00:20:41;7.82;;;5.28;;
57667;SDS011;43499;52.366;12.912;2023-04-24T00:21:44;6.25;;;5.40;;
57667;SDS011;43499;52.366;12.912;2023-04-24T00:22:45;6.40;;;5.30;;
57667;SDS011;43499;52.366;12.912;2023-04-24T00:23:46;7.75;;;5.30;;
57667;SDS011;43499;52.366;12.912;2023-04-24T00:24:48;6.38;;;4.90;;
57667;SDS011;43499;52.366;12.912;2023-04-24T00:25:49;5.75;;;5.03;;
57667;SDS011;43499;52.366;12.912;2023-04-24T00:26:50;7.82;;;5.40;;
57667;SDS011;43499;52.366;12.912;2023-04-24T00:27:51;8.57;;;5.15;;
57667;SDS011;43499;52.366;12.912;2023-04-24T00:28:52;7.78;;;5.05;;
57667;SDS011;43499;52.366;12.912;2023-04-24T00:29:53;8.02;;;5.40;;
57667;SDS011;43499;52.366;12.912;2023-04-24T00:30:54;5.93;;;5.13;;
57667;SDS011;43499;52.366;12.912;2023-04-24T00:31:55;5.65;;;4.93;;
57667;SDS011;43499;52.366;12.912;2023-04-24T00:32:56;7.00;;;5.07;;
57667;SDS011;43499;52.366;12.912;2023-04-24T00:33:58;9.40;;;5.32;;
57667;SDS011;43499;52.366;12.912;2023-04-24T00:34:59;7.47;;;5.20;;
57667;SDS011;43499;52.366;12.912;2023-04-24T00:36:00;5.32;;;4.40;;
57667;SDS011;43499;52.366;12.912;2023-04-24T00:37:01;6.10;;;4.90;;
57667;SDS011;43499;52.366;12.912;2023-04-24T00:38:02;7.18;;;5.35;;
57667;SDS011;43499;52.366;12.912;2023-04-24T00:39:03;6.28;;;5.13;;
57667;SDS011;43499;52.366;12.912;2023-04-24T00:40:05;7.45;;;4.43;;
57667;SDS011;43499;52.366;12.912;2023-04-24T00:41:06;9.93;;;5.28;;
57667;SDS011;43499;52.366;12.912;2023-04-24T00:42:08;8.05;;;5.53;;
57667;SDS011;43499;52.366;12.912;2023-04-24T00:43:09;7.03;;;4.85;;
57667;SDS011;43499;52.366;12.912;2023-04-24T00:44:10;6.15;;;4.72;;
57667;SDS011;43499;52.366;12.912;2023-04-24T00:45:11;7.28;;;5.43;;
57667;SDS011;43499;52.366;12.912;2023-04-24T00:46:13;6.03;;;4.70;;
57667;SDS011;43499;52.366;12.912;2023-04-24T00:47:15;7.28;;;4.80;;
57667;SDS011;43499;52.366;12.912;2023-04-24T00:48:16;6.65;;;5.03;;
57667;SDS011;43499;52.366;12.912;2023-04-24T00:49:18;6.95;;;5.10;;
57667;SDS011;43499;52.366;12.912;2023-04-24T00:50:20;6.18;;;5.00;;
57667;SDS011;43499;52.366;12.912;2023-04-24T00:51:22;5.85;;;4.85;;
57667;SDS011;43499;52.366;12.912;2023-04-24T00:52:25;7.00;;;5.47;;
57667;SDS011;43499;52.366;12.912;2023-04-24T00:53:26;10.05;;;4.88;;
57667;SDS011;43499;52.366;12.912;2023-04-24T00:54:27;7.82;;;5.05;;
57667;SDS011;43499;52.366;12.912;2023-04-24T00:55:28;6.80;;;5.10;;
57667;SDS011;43499;52.366;12.912;2023-04-24T00:56:29;6.80;;;5.50;;
57667;SDS011;43499;52.366;12.912;2023-04-24T00:57:31;7.28;;;5.43;;
57667;SDS011;43499;52.366;12.912;2023-04-24T00:58:32;6.40;;;5.07;;
57667;SDS011;43499;52.366;12.912;2023-04-24T00:59:34;9.07;;;5.70;;
57667;SDS011;43499;52.366;12.912;2023-04-24T01:00:35;5.97;;;5.38;;
57667;SDS011;43499;52.366;12.912;2023-04-24T01:01:36;6.38;;;5.10;;
57667;SDS011;43499;52.366;12.912;2023-04-24T01:02:38;7.38;;;5.25;;
57667;SDS011;43499;52.366;12.912;2023-04-24T01:03:41;7.72;;;5.45;;
57667;SDS011;43499;52.366;12.912;2023-04-24T01:04:42;7.63;;;5.60;;
57667;SDS011;43499;52.366;12.912;2023-04-24T01:05:43;7.75;;;5.00;;
57667;SDS011;43499;52.366;12.912;2023-04-24T01:06:44;7.85;;;5.43;;
57667;SDS011;43499;52.366;12.912;2023-04-24T01:07:46;7.05;;;5.50;;
57667;SDS011;43499;52.366;12.912;2023-04-24T01:08:49;6.85;;;5.50;;
57667;SDS011;43499;52.366;12.912;2023-04-24T01:09:50;6.32;;;5.22;;
57667;SDS011;43499;52.366;12.912;2023-04-24T01:10:53;6.05;;;5.32;;
57667;SDS011;43499;52.366;12.912;2023-04-24T01:11:55;5.78;;;5.03;;
57667;SDS011;43499;52.366;12.912;2023-04-24T01:12:57;8.18;;;5.75;;
57667;SDS011;43499;52.366;12.912;2023-04-24T01:13:58;6.72;;;5.68;;
57667;SDS011;43499;52.366;12.912;2023-04-24T01:15:00;7.80;;;5.65;;
57667;SDS011;43499;52.366;12.912;2023-04-24T01:16:01;8.90;;;5.97;;
57667;SDS011;43499;52.366;12.912;2023-04-24T01:17:02;8.90;;;5.45;;
57667;SDS011;43499;52.366;12.912;2023-04-24T01:18:03;6.53;;;5.40;;
57667;SDS011;43499;52.366;12.912;2023-04-24T01:19:06;6.00;;;5.40;;
57667;SDS011;43499;52.366;12.912;2023-04-24T01:20:07;7.55;;;5.22;;
57667;SDS011;43499;52.366;12.912;2023-04-24T01:21:09;7.63;;;5.68;;
57667;SDS011;43499;52.366;12.912;2023-04-24T01:22:14;11.93;;;5.72;;
57667;SDS011;43499;52.366;12.912;2023-04-24T01:23:15;7.47;;;5.68;;
57667;SDS011;43499;52.366;12.912;2023-04-24T01:24:17;7.72;;;5.43;;
57667;SDS011;43499;52.366;12.912;2023-04-24T01:25:20;7.82;;;5.30;;
57667;SDS011;43499;52.366;12.912;2023-04-24T01:26:21;6.82;;;5.75;;
57667;SDS011;43499;52.366;12.912;2023-04-24T01:27:22;15.30;;;6.00;;
57667;SDS011;43499;52.366;12.912;2023-04-24T01:28:23;10.43;;;6.13;;
57667;SDS011;43499;52.366;12.912;2023-04-24T01:29:24;11.07;;;5.72;;
57667;SDS011;43499;52.366;12.912;2023-04-24T01:30:26;10.02;;;5.47;;
57667;SDS011;43499;52.366;12.912;2023-04-24T01:31:28;9.98;;;5.65;;
57667;SDS011;43499;52.366;12.912;2023-04-24T01:32:29;9.82;;;6.13;;
57667;SDS011;43499;52.366;12.912;2023-04-24T01:33:30;7.88;;;5.63;;
57667;SDS011;43499;52.366;12.912;2023-04-24T01:34:32;6.75;;;5.45;;
57667;SDS011;43499;52.366;12.912;2023-04-24T01:35:33;7.53;;;5.53;;
57667;SDS011;43499;52.366;12.912;2023-04-24T01:36:36;6.35;;;5.28;;
57667;SDS011;43499;52.366;12.912;2023-04-24T01:37:38;7.22;;;5.90;;
57667;SDS011;43499;52.366;12.912;2023-04-24T01:38:39;7.47;;;5.82;;
57667;SDS011;43499;52.366;12.912;2023-04-24T01:39:40;7.60;;;5.53;;
57667;SDS011;43499;52.366;12.912;2023-04-24T01:40:41;7.05;;;5.40;;
57667;SDS011;43499;52.366;12.912;2023-04-24T01:41:42;7.25;;;5.93;;
57667;SDS011;43499;52.366;12.912;2023-04-24T01:42:43;6.88;;;5.40;;
57667;SDS011;43499;52.366;12.912;2023-04-24T01:43:45;9.00;;;5.93;;
57667;SDS011;43499;52.366;12.912;2023-04-24T01:44:47;6.30;;;5.40;;
57667;SDS011;43499;52.366;12.912;2023-04-24T01:45:48;7.45;;;5.53;;
57667;SDS011;43499;52.366;12.912;2023-04-24T01:46:49;7.13;;;5.72;;
57667;SDS011;43499;52.366;12.912;2023-04-24T01:47:51;8.43;;;6.38;;
57667;SDS011;43499;52.366;12.912;2023-04-24T01:48:52;7.28;;;5.95;;
57667;SDS011;43499;52.366;12.912;2023-04-24T01:49:54;9.00;;;6.22;;
57667;SDS011;43499;52.366;12.912;2023-04-24T01:50:56;6.78;;;5.50;;
57667;SDS011;43499;52.366;12.912;2023-04-24T01:51:58;8.60;;;5.88;;
57667;SDS011;43499;52.366;12.912;2023-04-24T01:52:59;7.57;;;5.38;;
57667;SDS011;43499;52.366;12.912;2023-04-24T01:54:00;8.65;;;5.25;;
57667;SDS011;43499;52.366;12.912;2023-04-24T01:55:01;8.35;;;6.47;;
57667;SDS011;43499;52.366;12.912;2023-04-24T01:56:04;7.13;;;5.65;;
57667;SDS011;43499;52.366;12.912;2023-04-24T01:57:05;7.93;;;6.20;;
57667;SDS011;43499;52.366;12.912;2023-04-24T01:58:07;7.38;;;5.93;;
57667;SDS011;43499;52.366;12.912;2023-04-24T01:59:11;7.85;;;5.95;;
57667;SDS011;43499;52.366;12.912;2023-04-24T02:00:13;7.18;;;5.93;;
57667;SDS011;43499;52.366;12.912;2023-04-24T02:01:17;8.63;;;5.75;;
57667;SDS011;43499;52.366;12.912;2023-04-24T02:02:22;8.48;;;5.90;;
57667;SDS011;43499;52.366;12.912;2023-04-24T02:03:25;7.07;;;5.95;;
57667;SDS011;43499;52.366;12.912;2023-04-24T02:04:26;8.23;;;5.78;;
57667;SDS011;43499;52.366;12.912;2023-04-24T02:05:28;9.07;;;6.53;;
57667;SDS011;43499;52.366;12.912;2023-04-24T02:06:30;7.00;;;5.78;;
57667;SDS011;43499;52.366;12.912;2023-04-24T02:07:31;8.00;;;6.57;;
57667;SDS011;43499;52.366;12.912;2023-04-24T02:08:33;7.38;;;6.47;;
57667;SDS011;43499;52.366;12.912;2023-04-24T02:09:34;6.88;;;5.50;;
57667;SDS011;43499;52.366;12.912;2023-04-24T02:10:35;9.00;;;6.00;;
57667;SDS011;43499;52.366;12.912;2023-04-24T02:11:36;7.20;;;6.18;;
57667;SDS011;43499;52.366;12.912;2023-04-24T02:12:37;8.23;;;5.68;;
57667;SDS011;43499;52.366;12.912;2023-04-24T02:13:38;7.70;;;5.53;;
57667;SDS011;43499;52.366;12.912;2023-04-24T02:14:39;7.55;;;5.50;;
57667;SDS011;43499;52.366;12.912;2023-04-24T02:15:41;8.50;;;6.00;;
57667;SDS011;43499;52.366;12.912;2023-04-24T02:16:42;7.32;;;5.50;;
57667;SDS011;43499;52.366;12.912;2023-04-24T02:17:43;8.13;;;5.88;;
57667;SDS011;43499;52.366;12.912;2023-04-24T02:18:44;8.75;;;5.43;;
57667;SDS011;43499;52.366;12.912;2023-04-24T02:19:45;7.70;;;5.45;;
57667;SDS011;43499;52.366;12.912;2023-04-24T02:20:46;10.32;;;6.03;;
57667;SDS011;43499;52.366;12.912;2023-04-24T02:21:49;8.52;;;5.90;;
57667;SDS011;43499;52.366;12.912;2023-04-24T02:22:49;11.30;;;6.07;;
57667;SDS011;43499;52.366;12.912;2023-04-24T02:23:52;7.53;;;5.55;;
57667;SDS011;43499;52.366;12.912;2023-04-24T02:24:53;6.32;;;5.43;;
57667;SDS011;43499;52.366;12.912;2023-04-24T02:25:54;7.25;;;5.75;;
57667;SDS011;43499;52.366;12.912;2023-04-24T02:26:56;7.28;;;5.82;;
57667;SDS011;43499;52.366;12.912;2023-04-24T02:27:59;7.85;;;5.65;;
57667;SDS011;43499;52.366;12.912;2023-04-24T02:29:01;7.50;;;5.90;;
57667;SDS011;43499;52.366;12.912;2023-04-24T02:30:02;6.82;;;5.72;;
57667;SDS011;43499;52.366;12.912;2023-04-24T02:31:04;9.02;;;5.63;;
57667;SDS011;43499;52.366;12.912;2023-04-24T02:32:06;7.28;;;5.82;;
57667;SDS011;43499;52.366;12.912;2023-04-24T02:33:07;10.48;;;5.93;;
57667;SDS011;43499;52.366;12.912;2023-04-24T02:34:08;8.38;;;5.40;;
57667;SDS011;43499;52.366;12.912;2023-04-24T02:35:09;6.47;;;5.50;;
57667;SDS011;43499;52.366;12.912;2023-04-24T02:36:11;8.55;;;5.95;;
57667;SDS011;43499;52.366;12.912;2023-04-24T02:37:12;9.00;;;5.40;;
57667;SDS011;43499;52.366;12.912;2023-04-24T02:38:13;8.13;;;5.88;;
57667;SDS011;43499;52.366;12.912;2023-04-24T02:39:14;8.35;;;5.82;;
57667;SDS011;43499;52.366;12.912;2023-04-24T02:40:17;6.93;;;5.35;;
57667;SDS011;43499;52.366;12.912;2023-04-24T02:41:18;9.95;;;5.85;;
57667;SDS011;43499;52.366;12.912;2023-04-24T02:42:20;6.57;;;5.13;;
57667;SDS011;43499;52.366;12.912;2023-04-24T02:43:21;7.47;;;5.88;;
57667;SDS011;43499;52.366;12.912;2023-04-24T02:44:22;7.35;;;5.95;;
57667;SDS011;43499;52.366;12.912;2023-04-24T02:45:23;9.15;;;5.75;;
57667;SDS011;43499;52.366;12.912;2023-04-24T02:46:25;8.23;;;6.22;;
57667;SDS011;43499;52.366;12.912;2023-04-24T02:47:26;7.72;;;4.95;;
57667;SDS011;43499;52.366;12.912;2023-04-24T02:48:27;6.50;;;5.75;;
57667;SDS011;43499;52.366;12.912;2023-04-24T02:49:28;6.20;;;5.05;;
57667;SDS011;43499;52.366;12.912;2023-04-24T02:50:29;8.18;;;5.90;;
57667;SDS011;43499;52.366;12.912;2023-04-24T02:51:30;6.63;;;5.68;;
57667;SDS011;43499;52.366;12.912;2023-04-24T02:52:32;7.22;;;5.80;;
57667;SDS011;43499;52.366;12.912;2023-04-24T02:53:33;7.25;;;5.60;;
57667;SDS011;43499;52.366;12.912;2023-04-24T02:54:34;7.32;;;5.80;;
57667;SDS011;43499;52.366;12.912;2023-04-24T02:55:35;7.53;;;5.55;;
57667;SDS011;43499;52.366;12.912;2023-04-24T02:56:37;6.70;;;5.40;;
57667;SDS011;43499;52.366;12.912;2023-04-24T02:57:39;7.22;;;6.07;;
57667;SDS011;43499;52.366;12.912;2023-04-24T02:58:41;7.80;;;5.80;;
57667;SDS011;43499;52.366;12.912;2023-04-24T02:59:43;8.45;;;6.65;;
57667;SDS011;43499;52.366;12.912;2023-04-24T03:00:44;8.10;;;5.95;;
57667;SDS011;43499;52.366;12.912;2023-04-24T03:01:45;7.10;;;5.40;;
57667;SDS011;43499;52.366;12.912;2023-04-24T03:02:46;7.55;;;5.60;;
57667;SDS011;43499;52.366;12.912;2023-04-24T03:03:47;6.53;;;5.32;;
57667;SDS011;43499;52.366;12.912;2023-04-24T03:04:48;9.27;;;6.40;;
57667;SDS011;43499;52.366;12.912;2023-04-24T03:05:50;7.70;;;5.95;;
57667;SDS011;43499;52.366;12.912;2023-04-24T03:06:51;9.88;;;6.35;;
57667;SDS011;43499;52.366;12.912;2023-04-24T03:07:54;7.72;;;6.38;;
57667;SDS011;43499;52.366;12.912;2023-04-24T03:08:56;10.13;;;6.18;;
57667;SDS011;43499;52.366;12.912;2023-04-24T03:09:57;9.35;;;5.88;;
57667;SDS011;43499;52.366;12.912;2023-04-24T03:10:59;7.10;;;5.97;;
57667;SDS011;43499;52.366;12.912;2023-04-24T03:12:00;12.02;;;6.13;;
57667;SDS011;43499;52.366;12.912;2023-04-24T03:13:01;7.80;;;6.07;;
57667;SDS011;43499;52.366;12.912;2023-04-24T03:14:02;11.68;;;6.45;;
57667;SDS011;43499;52.366;12.912;2023-04-24T03:15:03;10.60;;;6.03;;
57667;SDS011;43499;52.366;12.912;2023-04-24T03:16:04;9.13;;;5.80;;
57667;SDS011;43499;52.366;12.912;2023-04-24T03:17:06;6.88;;;5.90;;
57667;SDS011;43499;52.366;12.912;2023-04-24T03:18:07;6.60;;;5.72;;
57667;SDS011;43499;52.366;12.912;2023-04-24T03:19:08;10.02;;;6.28;;
57667;SDS011;43499;52.366;12.912;2023-04-24T03:20:17;8.85;;;6.13;;
57667;SDS011;43499;52.366;12.912;2023-04-24T03:21:18;7.00;;;6.25;;
57667;SDS011;43499;52.366;12.912;2023-04-24T03:40:35;7.47;;;4.43;;
57667;SDS011;43499;52.366;12.912;2023-04-24T03:47:41;5.68;;;3.90;;
57667;SDS011;43499;52.366;12.912;2023-04-24T03:57:42;3.85;;;3.20;;
57667;SDS011;43499;52.366;12.912;2023-04-24T04:03:46;9.75;;;3.22;;
57667;SDS011;43499;52.366;12.912;2023-04-24T04:05:33;12.98;;;3.50;;
57667;SDS011;43499;52.366;12.912;2023-04-24T04:10:10;4.30;;;3.03;;
57667;SDS011;43499;52.366;12.912;2023-04-24T04:17:38;3.60;;;2.70;;
57667;SDS011;43499;52.366;12.912;2023-04-24T04:20:10;9.07;;;2.90;;
57667;SDS011;43499;52.366;12.912;2023-04-24T04:27:48;4.60;;;3.08;;
57667;SDS011;43499;52.366;12.912;2023-04-24T04:32:34;4.00;;;3.13;;
57667;SDS011;43499;52.366;12.912;2023-04-24T04:34:59;4.85;;;2.88;;
57667;SDS011;43499;52.366;12.912;2023-04-24T04:41:56;4.53;;;3.10;;
57667;SDS011;43499;52.366;12.912;2023-04-24T04:47:11;4.57;;;2.88;;
57667;SDS011;43499;52.366;12.912;2023-04-24T04:49:35;4.63;;;2.70;;
57667;SDS011;43499;52.366;12.912;2023-04-24T04:56:45;2.78;;;2.28;;
57667;SDS011;43499;52.366;12.912;2023-04-24T04:58:48;4.05;;;2.10;;
57667;SDS011;43499;52.366;12.912;2023-04-24T05:12:17;3.25;;;1.75;;
57667;SDS011;43499;52.366;12.912;2023-04-24T05:32:31;3.55;;;1.95;;
57667;SDS011;43499;52.366;12.912;2023-04-24T05:47:00;2.10;;;1.65;;
57667;SDS011;43499;52.366;12.912;2023-04-24T06:11:39;3.55;;;1.73;;
57667;SDS011;43499;52.366;12.912;2023-04-24T06:34:25;2.58;;;1.80;;
57667;SDS011;43499;52.366;12.912;2023-04-24T06:49:02;1.58;;;1.48;;
57667;SDS011;43499;52.366;12.912;2023-04-24T06:51:07;1.55;;;1.45;;
57667;SDS011;43499;52.366;12.912;2023-04-24T06:53:06;3.55;;;1.52;;
57667;SDS011;43499;52.366;12.912;2023-04-24T06:54:41;1.73;;;1.40;;
57667;SDS011;43499;52.366;12.912;2023-04-24T06:56:22;1.90;;;1.50;;
57667;SDS011;43499;52.366;12.912;2023-04-24T07:11:40;2.25;;;1.38;;
57667;SDS011;43499;52.366;12.912;2023-04-24T07:28:19;3.40;;;1.40;;
57667;SDS011;43499;52.366;12.912;2023-04-24T07:31:27;2.08;;;1.30;;
57667;SDS011;43499;52.366;12.912;2023-04-24T07:43:11;1.67;;;1.58;;
57667;SDS011;43499;52.366;12.912;2023-04-24T07:47:48;1.42;;;1.33;;
57667;SDS011;43499;52.366;12.912;2023-04-24T08:00:58;2.35;;;1.40;;
57667;SDS011;43499;52.366;12.912;2023-04-24T08:12:41;2.40;;;1.50;;
57667;SDS011;43499;52.366;12.912;2023-04-24T08:18:59;1.73;;;1.50;;
57667;SDS011;43499;52.366;12.912;2023-04-24T08:21:17;1.83;;;1.10;;
57667;SDS011;43499;52.366;12.912;2023-04-24T08:27:42;5.05;;;1.50;;
57667;SDS011;43499;52.366;12.912;2023-04-24T08:34:56;4.10;;;2.10;;
57667;SDS011;43499;52.366;12.912;2023-04-24T08:47:37;1.35;;;1.25;;
57667;SDS011;43499;52.366;12.912;2023-04-24T08:49:20;1.95;;;1.40;;
57667;SDS011;43499;52.366;12.912;2023-04-24T08:56:07;2.67;;;1.50;;
57667;SDS011;43499;52.366;12.912;2023-04-24T08:58:25;2.88;;;1.58;;
57667;SDS011;43499;52.366;12.912;2023-04-24T09:03:09;4.28;;;1.40;;
57667;SDS011;43499;52.366;12.912;2023-04-24T09:20:54;1.40;;;1.30;;
57667;SDS011;43499;52.366;12.912;2023-04-24T09:27:46;1.80;;;1.50;;
57667;SDS011;43499;52.366;12.912;2023-04-24T09:30:10;3.70;;;1.85;;
57667;SDS011;43499;52.366;12.912;2023-04-24T09:40:51;1.80;;;1.27;;
57667;SDS011;43499;52.366;12.912;2023-04-24T09:47:14;1.33;;;1.23;;
57667;SDS011;43499;52.366;12.912;2023-04-24T09:48:16;1.63;;;1.27;;
57667;SDS011;43499;52.366;12.912;2023-04-24T09:49:24;1.35;;;1.25;;
57667;SDS011;43499;52.366;12.912;2023-04-24T09:50:26;1.43;;;1.30;;
57667;SDS011;43499;52.366;12.912;2023-04-24T09:51:34;1.30;;;1.20;;
57667;SDS011;43499;52.366;12.912;2023-04-24T09:52:40;1.70;;;1.38;;
57667;SDS011;43499;52.366;12.912;2023-04-24T09:53:46;2.53;;;1.42;;
57667;SDS011;43499;52.366;12.912;2023-04-24T09:54:53;3.67;;;1.63;;
57667;SDS011;43499;52.366;12.912;2023-04-24T09:55:55;1.77;;;1.40;;
57667;SDS011;43499;52.366;12.912;2023-04-24T09:56:56;3.75;;;1.70;;
57667;SDS011;43499;52.366;12.912;2023-04-24T09:57:58;3.25;;;1.50;;
57667;SDS011;43499;52.366;12.912;2023-04-24T09:59:06;2.10;;;1.65;;
57667;SDS011;43499;52.366;12.912;2023-04-24T10:00:08;1.98;;;1.40;;
57667;SDS011;43499;52.366;12.912;2023-04-24T10:01:12;1.77;;;1.35;;
57667;SDS011;43499;52.366;12.912;2023-04-24T10:02:17;3.13;;;1.45;;
57667;SDS011;43499;52.366;12.912;2023-04-24T10:03:19;2.42;;;1.63;;
57667;SDS011;43499;52.366;12.912;2023-04-24T10:04:21;3.20;;;1.52;;
57667;SDS011;43499;52.366;12.912;2023-04-24T10:05:26;7.25;;;2.53;;
57667;SDS011;43499;52.366;12.912;2023-04-24T10:06:37;5.13;;;1.75;;
57667;SDS011;43499;52.366;12.912;2023-04-24T10:07:38;1.67;;;1.50;;
57667;SDS011;43499;52.366;12.912;2023-04-24T10:08:39;2.92;;;1.50;;
57667;SDS011;43499;52.366;12.912;2023-04-24T10:09:41;2.15;;;1.60;;
57667;SDS011;43499;52.366;12.912;2023-04-24T10:10:43;2.20;;;1.50;;
57667;SDS011;43499;52.366;12.912;2023-04-24T10:11:47;3.63;;;1.60;;
57667;SDS011;43499;52.366;12.912;2023-04-24T10:12:50;5.13;;;1.50;;
57667;SDS011;43499;52.366;12.912;2023-04-24T10:13:51;1.70;;;1.50;;
57667;SDS011;43499;52.366;12.912;2023-04-24T10:14:53;2.47;;;1.40;;
57667;SDS011;43499;52.366;12.912;2023-04-24T10:15:55;3.90;;;1.55;;
57667;SDS011;43499;52.366;12.912;2023-04-24T10:16:59;3.95;;;1.50;;
57667;SDS011;43499;52.366;12.912;2023-04-24T10:18:00;3.17;;;1.52;;
57667;SDS011;43499;52.366;12.912;2023-04-24T10:19:04;1.50;;;1.38;;
57667;SDS011;43499;52.366;12.912;2023-04-24T10:20:06;1.85;;;1.55;;
57667;SDS011;43499;52.366;12.912;2023-04-24T10:21:08;1.42;;;1.33;;
57667;SDS011;43499;52.366;12.912;2023-04-24T10:22:09;2.95;;;1.25;;
57667;SDS011;43499;52.366;12.912;2023-04-24T10:23:11;2.25;;;1.30;;
57667;SDS011;43499;52.366;12.912;2023-04-24T10:24:14;2.75;;;1.38;;
57667;SDS011;43499;52.366;12.912;2023-04-24T10:25:19;2.88;;;1.42;;
57667;SDS011;43499;52.366;12.912;2023-04-24T10:26:22;9.77;;;1.95;;
57667;SDS011;43499;52.366;12.912;2023-04-24T10:27:23;4.40;;;1.52;;
57667;SDS011;43499;52.366;12.912;2023-04-24T10:28:30;1.83;;;1.73;;
57667;SDS011;43499;52.366;12.912;2023-04-24T10:29:32;1.65;;;1.48;;
57667;SDS011;43499;52.366;12.912;2023-04-24T10:30:36;6.53;;;1.63;;
57667;SDS011;43499;52.366;12.912;2023-04-24T10:31:37;3.25;;;1.63;;
57667;SDS011;43499;52.366;12.912;2023-04-24T10:32:39;5.20;;;1.63;;
57667;SDS011;43499;52.366;12.912;2023-04-24T10:33:43;3.97;;;1.60;;
57667;SDS011;43499;52.366;12.912;2023-04-24T10:34:44;3.92;;;1.90;;
57667;SDS011;43499;52.366;12.912;2023-04-24T10:35:45;2.50;;;1.80;;
57667;SDS011;43499;52.366;12.912;2023-04-24T10:36:50;3.40;;;2.03;;
57667;SDS011;43499;52.366;12.912;2023-04-24T10:38:03;4.25;;;1.85;;
57667;SDS011;43499;52.366;12.912;2023-04-24T10:39:08;2.28;;;1.80;;
57667;SDS011;43499;52.366;12.912;2023-04-24T10:40:11;2.55;;;1.65;;
57667;SDS011;43499;52.366;12.912;2023-04-24T10:41:16;3.00;;;1.75;;
57667;SDS011;43499;52.366;12.912;2023-04-24T10:42:23;3.90;;;1.95;;
57667;SDS011;43499;52.366;12.912;2023-04-24T10:43:24;2.70;;;1.63;;
57667;SDS011;43499;52.366;12.912;2023-04-24T10:44:25;1.77;;;1.50;;
57667;SDS011;43499;52.366;12.912;2023-04-24T10:45:37;4.35;;;1.35;;
57667;SDS011;43499;52.366;12.912;2023-04-24T10:46:44;1.50;;;1.40;;
57667;SDS011;43499;52.366;12.912;2023-04-24T10:48:59;2.08;;;1.55;;
57667;SDS011;43499;52.366;12.912;2023-04-24T10:50:07;1.52;;;1.25;;
57667;SDS011;43499;52.366;12.912;2023-04-24T10:51:14;3.55;;;1.67;;
57667;SDS011;43499;52.366;12.912;2023-04-24T10:52:15;1.50;;;1.20;;
57667;SDS011;43499;52.366;12.912;2023-04-24T10:53:21;1.15;;;0.90;;
57667;SDS011;43499;52.366;12.912;2023-04-24T10:55:45;1.40;;;1.23;;
57667;SDS011;43499;52.366;12.912;2023-04-24T10:56:47;1.00;;;1.00;;
57667;SDS011;43499;52.366;12.912;2023-04-24T10:58:03;1.27;;;1.10;;
57667;SDS011;43499;52.366;12.912;2023-04-24T10:59:07;1.58;;;1.48;;
57667;SDS011;43499;52.366;12.912;2023-04-24T11:00:18;2.97;;;1.20;;
57667;SDS011;43499;52.366;12.912;2023-04-24T11:01:28;3.10;;;1.20;;
57667;SDS011;43499;52.366;12.912;2023-04-24T11:02:36;1.98;;;1.20;;
57667;SDS011;43499;52.366;12.912;2023-04-24T11:03:39;0.95;;;0.95;;
57667;SDS011;43499;52.366;12.912;2023-04-24T11:04:51;1.17;;;1.08;;
57667;SDS011;43499;52.366;12.912;2023-04-24T11:06:56;2.13;;;1.30;;
57667;SDS011;43499;52.366;12.912;2023-04-24T11:08:14;1.40;;;1.30;;
57667;SDS011;43499;52.366;12.912;2023-04-24T11:09:16;1.70;;;1.40;;
57667;SDS011;43499;52.366;12.912;2023-04-24T11:10:25;1.70;;;1.23;;
57667;SDS011;43499;52.366;12.912;2023-04-24T11:11:28;1.70;;;1.48;;
57667;SDS011;43499;52.366;12.912;2023-04-24T11:12:31;1.95;;;1.40;;
57667;SDS011;43499;52.366;12.912;2023-04-24T11:14:59;1.70;;;1.30;;
57667;SDS011;43499;52.366;12.912;2023-04-24T11:16:14;1.42;;;1.33;;
57667;SDS011;43499;52.366;12.912;2023-04-24T11:17:33;1.58;;;1.10;;
57667;SDS011;43499;52.366;12.912;2023-04-24T11:18:38;4.78;;;1.45;;
57667;SDS011;43499;52.366;12.912;2023-04-24T11:19:40;1.20;;;1.10;;
57667;SDS011;43499;52.366;12.912;2023-04-24T11:20:42;1.13;;;1.02;;
57667;SDS011;43499;52.366;12.912;2023-04-24T11:21:45;3.80;;;1.20;;
57667;SDS011;43499;52.366;12.912;2023-04-24T11:22:48;1.58;;;1.30;;
57667;SDS011;43499;52.366;12.912;2023-04-24T11:23:49;1.38;;;1.10;;
57667;SDS011;43499;52.366;12.912;2023-04-24T11:24:53;2.55;;;1.40;;
57667;SDS011;43499;52.366;12.912;2023-04-24T11:26:21;2.20;;;1.40;;
57667;SDS011;43499;52.366;12.912;2023-04-24T11:27:25;1.90;;;1.60;;
57667;SDS011;43499;52.366;12.912;2023-04-24T11:28:31;1.58;;;1.40;;
57667;SDS011;43499;52.366;12.912;2023-04-24T11:29:41;1.33;;;1.33;;
57667;SDS011;43499;52.366;12.912;2023-04-24T11:30:43;4.43;;;1.50;;
57667;SDS011;43499;52.366;12.912;2023-04-24T11:31:44;1.73;;;1.35;;
57667;SDS011;43499;52.366;12.912;2023-04-24T11:32:50;1.55;;;1.42;;
57667;SDS011;43499;52.366;12.912;2023-04-24T11:33:52;1.40;;;1.30;;
57667;SDS011;43499;52.366;12.912;2023-04-24T11:34:54;5.10;;;1.73;;
57667;SDS011;43499;52.366;12.912;2023-04-24T11:35:57;2.75;;;1.60;;
57667;SDS011;43499;52.366;12.912;2023-04-24T11:36:58;1.73;;;1.60;;
57667;SDS011;43499;52.366;12.912;2023-04-24T11:38:00;1.80;;;1.58;;
57667;SDS011;43499;52.366;12.912;2023-04-24T11:39:06;8.05;;;1.45;;
57667;SDS011;43499;52.366;12.912;2023-04-24T11:40:08;2.92;;;1.50;;
57667;SDS011;43499;52.366;12.912;2023-04-24T11:41:11;1.65;;;1.35;;
57667;SDS011;43499;52.366;12.912;2023-04-24T11:42:15;3.58;;;1.50;;
57667;SDS011;43499;52.366;12.912;2023-04-24T11:43:16;2.00;;;1.55;;
57667;SDS011;43499;52.366;12.912;2023-04-24T11:44:19;1.70;;;1.40;;
57667;SDS011;43499;52.366;12.912;2023-04-24T11:45:22;1.50;;;1.40;;
57667;SDS011;43499;52.366;12.912;2023-04-24T11:46:27;2.47;;;1.63;;
57667;SDS011;43499;52.366;12.912;2023-04-24T11:47:29;1.80;;;1.70;;
57667;SDS011;43499;52.366;12.912;2023-04-24T11:48:33;1.67;;;1.40;;
57667;SDS011;43499;52.366;12.912;2023-04-24T11:49:36;1.63;;;1.48;;
57667;SDS011;43499;52.366;12.912;2023-04-24T11:50:38;1.60;;;1.50;;
57667;SDS011;43499;52.366;12.912;2023-04-24T11:51:39;4.10;;;2.60;;
57667;SDS011;43499;52.366;12.912;2023-04-24T11:52:41;1.98;;;1.52;;